Time;durP1;ratioP1;P1;durP2;ratioP2;P2;SDS_P1;SDS_P2;PMS_P1;PMS_P2;Temp;Humidity;BMP_temperature;BMP_pressure;BME280_temperature;BME280_humidity;BME280_pressure;Samples;Min_cycle;Max_cycle;Signal;HPM_P1;HPM_P2
2021/09/26 00:00:16;;;;;;;1.95;1.40;;;;;;;10.66;79.89;97714.16;5054044;28;20414;-61
2021/09/26 00:02:43;;;;;;;1.60;1.50;;;;;;;10.63;80.55;97720.78;5052598;28;20135;-59
2021/09/26 00:05:11;;;;;;;2.17;1.45;;;;;;;10.62;80.63;97724.53;5052685;28;20587;-61
2021/09/26 00:07:37;;;;;;;2.95;1.52;;;;;;;10.61;80.35;97730.88;5053941;28;20057;-60
2021/09/26 00:10:05;;;;;;;1.90;1.42;;;;;;;10.60;80.44;97720.56;5052534;28;20052;-61
2021/09/26 00:12:30;;;;;;;2.97;1.58;;;;;;;10.64;80.73;97727.66;5052626;28;20414;-60
2021/09/26 00:14:57;;;;;;;2.05;1.50;;;;;;;10.64;80.74;97727.66;5053737;28;20064;-60
2021/09/26 00:17:24;;;;;;;7.03;3.10;;;;;;;10.66;80.83;97719.44;5053956;28;20450;-61
2021/09/26 00:19:50;;;;;;;10.00;4.10;;;;;;;10.64;80.27;97719.72;5052613;28;20139;-62
2021/09/26 00:22:16;;;;;;;16.15;8.20;;;;;;;10.55;81.03;97715.28;5053932;28;20045;-61
2021/09/26 00:24:42;;;;;;;14.23;7.25;;;;;;;10.46;80.90;97720.41;5053727;28;20043;-62
2021/09/26 00:27:10;;;;;;;14.30;6.82;;;;;;;10.41;81.85;97715.13;5052301;28;20044;-60
2021/09/26 00:29:37;;;;;;;17.58;8.27;;;;;;;10.41;81.40;97720.44;5053620;28;20037;-60
2021/09/26 00:32:04;;;;;;;10.60;5.70;;;;;;;10.38;81.26;97718.34;5053734;28;20045;-60
2021/09/26 00:34:30;;;;;;;5.15;2.95;;;;;;;10.39;81.89;97725.22;5053731;28;20048;-61
2021/09/26 00:36:56;;;;;;;10.77;4.82;;;;;;;10.29;82.19;97726.06;5053575;28;20045;-61
2021/09/26 00:39:22;;;;;;;7.05;3.92;;;;;;;10.34;81.83;97731.34;5053222;28;20080;-60
2021/09/26 00:41:48;;;;;;;10.23;5.63;;;;;;;10.35;82.08;97724.19;5053633;28;20143;-60
2021/09/26 00:44:16;;;;;;;4.80;3.00;;;;;;;10.34;81.98;97725.25;5053447;28;20037;-59
2021/09/26 00:46:42;;;;;;;6.00;3.67;;;;;;;10.26;81.98;97731.09;5053509;28;20045;-61
2021/09/26 00:49:08;;;;;;;5.40;2.47;;;;;;;10.18;81.68;97729.84;5053577;28;20056;-61
2021/09/26 00:51:34;;;;;;;2.58;1.67;;;;;;;10.12;82.04;97723.00;5052472;28;20037;-61
2021/09/26 00:54:00;;;;;;;1.42;1.33;;;;;;;10.11;81.30;97732.00;5053198;28;20049;-61
2021/09/26 00:56:26;;;;;;;2.83;1.90;;;;;;;10.10;82.32;97730.44;5059162;28;20135;-61
2021/09/26 00:58:58;;;;;;;3.33;2.00;;;;;;;10.08;81.75;97738.63;5061742;28;20127;-61
2021/09/26 01:01:24;;;;;;;1.40;1.30;;;;;;;10.08;81.79;97727.25;5063792;28;20437;-59
2021/09/26 01:03:50;;;;;;;1.98;1.50;;;;;;;10.13;81.28;97735.97;5062289;28;20033;-59
2021/09/26 01:06:35;;;;;;;5.30;2.42;;;;;;;10.15;81.56;97747.06;5062566;28;20127;-60
2021/09/26 01:09:07;;;;;;;6.93;3.95;;;;;;;10.19;81.48;97740.16;5061902;28;20076;-61
2021/09/26 01:11:42;;;;;;;5.63;3.05;;;;;;;10.24;80.91;97742.00;5060084;28;20073;-61
2021/09/26 01:14:29;;;;;;;3.00;2.40;;;;;;;10.27;81.23;97741.47;5061879;28;20108;-61
2021/09/26 01:17:14;;;;;;;1.90;1.52;;;;;;;10.28;80.93;97745.69;5051339;28;20059;-61
2021/09/26 01:20:11;;;;;;;2.50;1.83;;;;;;;10.35;80.75;97748.03;5060683;28;20052;-62
2021/09/26 01:22:52;;;;;;;3.55;2.03;;;;;;;10.38;80.93;97745.63;5061514;28;20053;-60
2021/09/26 01:25:36;;;;;;;4.10;2.53;;;;;;;10.35;81.00;97745.38;5060294;28;20593;-60
2021/09/26 01:28:20;;;;;;;2.47;1.80;;;;;;;10.28;81.06;97748.34;5061956;28;20053;-60
2021/09/26 01:30:57;;;;;;;4.22;2.53;;;;;;;10.24;81.41;97739.34;5061635;28;20036;-60
2021/09/26 01:33:32;;;;;;;3.97;2.67;;;;;;;10.13;81.34;97748.41;5068971;28;20040;-60
2021/09/26 01:36:02;;;;;;;7.22;4.20;;;;;;;10.04;81.98;97742.13;5072522;28;20056;-60
2021/09/26 01:38:28;;;;;;;11.85;5.65;;;;;;;9.98;82.00;97750.06;5070927;28;20044;-61
2021/09/26 01:41:02;;;;;;;6.82;3.47;;;;;;;10.00;81.80;97752.47;5072051;28;20047;-61
2021/09/26 01:43:36;;;;;;;8.88;5.40;;;;;;;10.00;82.11;97744.53;5071151;28;20517;-60
2021/09/26 01:46:06;;;;;;;5.85;3.33;;;;;;;10.10;81.84;97757.69;5070822;28;20143;-60
2021/09/26 01:48:41;;;;;;;3.58;2.85;;;;;;;10.12;81.35;97757.44;5070785;28;20041;-60
2021/09/26 01:51:09;;;;;;;4.28;2.47;;;;;;;10.18;81.19;97758.97;5070753;28;20098;-61
2021/09/26 01:53:37;;;;;;;4.85;2.90;;;;;;;10.20;80.85;97756.84;5072180;28;20040;-60
2021/09/26 01:56:04;;;;;;;1.60;1.30;;;;;;;10.19;80.67;97756.03;5070585;28;20529;-60
2021/09/26 01:58:31;;;;;;;4.28;2.25;;;;;;;10.23;80.80;97750.97;5071752;28;20525;-61
2021/09/26 02:00:57;;;;;;;7.35;3.70;;;;;;;10.14;81.07;97749.97;5070739;28;20095;-60
2021/09/26 02:03:23;;;;;;;4.05;2.78;;;;;;;10.18;81.13;97758.97;5069924;28;20068;-60
2021/09/26 02:05:49;;;;;;;6.40;3.50;;;;;;;10.20;81.24;97760.25;5070461;28;20036;-60
2021/09/26 02:08:15;;;;;;;6.80;4.15;;;;;;;10.13;80.55;97756.34;5070433;28;20525;-60
2021/09/26 02:10:43;;;;;;;4.20;2.10;;;;;;;10.14;81.23;97761.38;5053550;28;20079;-60
2021/09/26 02:13:09;;;;;;;17.30;3.72;;;;;;;10.10;80.75;97763.00;5071562;28;20045;-61
2021/09/26 02:15:36;;;;;;;7.70;1.42;;;;;;;10.09;81.10;97758.75;5070259;28;20044;-60
2021/09/26 02:18:03;;;;;;;1.90;1.67;;;;;;;10.09;80.63;97756.13;5070601;28;20051;-61
2021/09/26 02:20:29;;;;;;;1.40;1.30;;;;;;;10.06;80.77;97766.44;5070356;28;20461;-61
2021/09/26 02:22:56;;;;;;;1.38;1.27;;;;;;;10.02;81.76;97764.34;5070107;28;20383;-60
2021/09/26 02:25:23;;;;;;;1.55;1.30;;;;;;;10.05;81.04;97772.81;5071452;28;20032;-61
2021/09/26 02:27:49;;;;;;;2.20;1.40;;;;;;;10.01;81.63;97769.91;5053614;28;20421;-60
2021/09/26 02:30:15;;;;;;;2.65;1.50;;;;;;;9.96;82.17;97768.06;5071696;28;20424;-61
2021/09/26 02:32:42;;;;;;;2.70;1.27;;;;;;;9.95;82.46;97771.00;5070052;28;20052;-58
2021/09/26 02:35:09;;;;;;;1.30;1.10;;;;;;;9.94;82.26;97772.06;5071575;28;20064;-60
2021/09/26 02:37:36;;;;;;;1.33;1.25;;;;;;;9.93;82.59;97781.06;5071714;28;20044;-61
2021/09/26 02:40:03;;;;;;;1.20;1.10;;;;;;;9.81;83.20;97781.38;5070013;28;20044;-62
2021/09/26 02:42:40;;;;;;;1.10;1.10;;;;;;;9.81;83.66;97776.09;5070198;28;20130;-61
2021/09/26 02:45:23;;;;;;;1.48;1.10;;;;;;;9.83;83.32;97781.13;5071543;28;20067;-61
2021/09/26 02:48:01;;;;;;;3.30;1.10;;;;;;;9.84;83.15;97782.72;5070178;28;20045;-60
2021/09/26 02:50:27;;;;;;;1.27;1.20;;;;;;;9.78;82.96;97784.59;5071176;28;20040;-61
2021/09/26 02:52:53;;;;;;;2.15;1.13;;;;;;;9.75;82.85;97777.19;5071584;28;20051;-61
2021/09/26 02:55:20;;;;;;;1.10;1.00;;;;;;;9.77;82.86;97786.44;5070236;28;20067;-61
2021/09/26 02:57:46;;;;;;;1.25;1.10;;;;;;;9.72;82.66;97785.66;5070006;28;20484;-62
2021/09/26 03:00:12;;;;;;;2.08;1.20;;;;;;;9.68;83.04;97782.78;5069897;28;20055;-61
2021/09/26 03:02:39;;;;;;;1.33;1.15;;;;;;;9.73;83.37;97789.88;5071522;28;20183;-61
2021/09/26 03:05:07;;;;;;;1.67;1.20;;;;;;;9.69;82.48;97784.34;5071286;28;20040;-61
2021/09/26 03:07:34;;;;;;;1.63;1.45;;;;;;;9.69;82.97;97786.22;5071051;28;20529;-60
2021/09/26 03:10:00;;;;;;;1.30;1.20;;;;;;;9.66;82.78;97800.75;5070986;28;20057;-61
2021/09/26 03:12:26;;;;;;;2.47;1.63;;;;;;;9.68;82.30;97795.22;5071314;28;20390;-61
2021/09/26 03:14:52;;;;;;;2.00;1.30;;;;;;;9.65;82.00;97791.25;5071864;28;20040;-61
2021/09/26 03:17:18;;;;;;;1.50;1.38;;;;;;;9.65;82.50;97788.59;5075270;28;20573;-60
2021/09/26 03:19:44;;;;;;;1.70;1.50;;;;;;;9.64;82.14;97791.50;5075080;28;20071;-61
2021/09/26 03:22:12;;;;;;;2.40;1.50;;;;;;;9.62;81.47;97791.78;5075063;28;20098;-60
2021/09/26 03:24:38;;;;;;;1.90;1.60;;;;;;;9.69;82.00;97789.63;5075028;28;20106;-61
2021/09/26 03:27:08;;;;;;;2.83;2.00;;;;;;;9.69;81.47;97791.50;5073496;28;20037;-60
2021/09/26 03:29:35;;;;;;;5.10;2.90;;;;;;;9.64;81.92;97791.50;5073365;28;20127;-60
2021/09/26 03:32:02;;;;;;;2.60;2.00;;;;;;;9.65;81.60;97793.13;5073507;28;20414;-61
2021/09/26 03:34:28;;;;;;;3.50;2.53;;;;;;;9.68;82.33;97800.50;5073200;28;20036;-62
2021/09/26 03:36:54;;;;;;;3.95;2.80;;;;;;;9.69;81.83;97794.94;5074809;28;20048;-61
2021/09/26 03:39:20;;;;;;;3.15;2.70;;;;;;;9.71;81.53;97802.63;5074483;28;20409;-60
2021/09/26 03:41:45;;;;;;;4.50;2.33;;;;;;;9.69;81.85;97794.16;5074090;28;20421;-60
2021/09/26 03:44:11;;;;;;;3.10;2.13;;;;;;;9.62;81.16;97807.66;5074327;28;20041;-59
2021/09/26 03:46:37;;;;;;;4.85;2.50;;;;;;;9.59;82.21;97807.38;5074178;28;20033;-60
2021/09/26 03:49:03;;;;;;;3.92;2.72;;;;;;;9.62;81.77;97801.56;5074296;28;20036;-59
2021/09/26 03:51:29;;;;;;;3.08;2.20;;;;;;;9.59;81.83;97810.03;5073080;28;20135;-61
2021/09/26 03:53:55;;;;;;;2.80;1.70;;;;;;;9.57;81.45;97812.19;5074111;28;20040;-61
2021/09/26 03:56:20;;;;;;;3.08;1.73;;;;;;;9.55;82.07;97804.50;5072978;28;20056;-60
2021/09/26 03:58:46;;;;;;;2.28;2.00;;;;;;;9.63;82.11;97811.88;5074273;28;20037;-60
2021/09/26 04:01:12;;;;;;;2.50;2.05;;;;;;;9.58;81.84;97816.41;5074282;28;20512;-61
2021/09/26 04:03:38;;;;;;;4.05;3.03;;;;;;;9.62;81.68;97823.53;5072696;28;20037;-60
2021/09/26 04:06:09;;;;;;;2.75;2.20;;;;;;;9.63;81.53;97824.31;5074017;28;20049;-59
2021/09/26 04:08:37;;;;;;;2.83;2.13;;;;;;;9.57;81.44;97828.84;5073695;28;20562;-60
2021/09/26 04:11:03;;;;;;;3.72;3.13;;;;;;;9.59;81.32;97828.56;5073683;28;20480;-61
2021/09/26 04:13:29;;;;;;;4.25;2.10;;;;;;;9.64;81.58;97839.13;5072561;28;20048;-61
2021/09/26 04:15:55;;;;;;;2.08;1.85;;;;;;;9.59;81.78;97831.19;5073955;28;20040;-61
2021/09/26 04:18:20;;;;;;;4.13;2.00;;;;;;;9.59;81.46;97842.59;5073652;28;20032;-60
2021/09/26 04:20:46;;;;;;;2.33;1.92;;;;;;;9.63;81.37;97834.91;5073669;28;20071;-61
2021/09/26 04:23:12;;;;;;;2.28;1.90;;;;;;;9.64;80.91;97842.56;5073619;28;20039;-60
2021/09/26 04:25:38;;;;;;;3.28;2.50;;;;;;;9.67;81.01;97841.25;5072784;28;20036;-60
2021/09/26 04:28:03;;;;;;;2.70;2.30;;;;;;;9.67;81.04;97842.03;5073426;28;20064;-60
2021/09/26 04:30:29;;;;;;;2.75;2.20;;;;;;;9.67;81.15;97846.53;5073474;28;20254;-61
2021/09/26 04:32:55;;;;;;;3.90;2.10;;;;;;;9.62;81.75;97847.34;5072301;28;20135;-60
2021/09/26 04:35:21;;;;;;;3.47;2.28;;;;;;;9.63;81.93;97843.63;5073757;28;20040;-62
2021/09/26 04:37:47;;;;;;;2.97;2.45;;;;;;;9.67;81.70;97843.88;5073227;28;20071;-61
2021/09/26 04:40:13;;;;;;;2.08;1.88;;;;;;;9.66;81.52;97851.03;5072027;28;20201;-61
2021/09/26 04:42:38;;;;;;;4.13;2.40;;;;;;;9.73;81.36;97853.38;5073730;28;20482;-59
2021/09/26 04:45:08;;;;;;;2.38;2.17;;;;;;;9.72;81.69;97857.88;5073129;28;20082;-61
2021/09/26 04:47:33;;;;;;;3.33;2.65;;;;;;;9.69;81.65;97857.66;5073611;28;20044;-59
2021/09/26 04:49:59;;;;;;;4.10;2.40;;;;;;;9.63;81.87;97856.84;5073289;28;20059;-61
2021/09/26 04:52:25;;;;;;;4.07;3.05;;;;;;;9.63;82.08;97856.84;5072955;28;20087;-59
2021/09/26 04:54:51;;;;;;;2.80;2.50;;;;;;;9.63;81.45;97859.50;5073032;28;20422;-62
2021/09/26 04:57:17;;;;;;;4.45;2.97;;;;;;;9.58;81.88;97862.16;5072896;28;20047;-60
2021/09/26 04:59:43;;;;;;;3.00;2.45;;;;;;;9.62;82.22;97870.34;5073118;28;20470;-60
2021/09/26 05:02:08;;;;;;;3.10;2.67;;;;;;;9.57;82.24;97867.72;5073002;28;20135;-61
2021/09/26 05:04:35;;;;;;;4.05;2.90;;;;;;;9.67;82.10;97873.78;5072698;28;20112;-62
2021/09/26 05:07:01;;;;;;;3.45;3.00;;;;;;;9.65;82.20;97878.56;5072633;28;20502;-61
2021/09/26 05:09:26;;;;;;;4.53;3.10;;;;;;;9.67;81.91;97879.06;5072740;28;20040;-61
2021/09/26 05:11:53;;;;;;;3.33;2.83;;;;;;;9.68;81.89;97885.97;5071289;28;20041;-62
2021/09/26 05:14:19;;;;;;;4.55;3.60;;;;;;;9.62;82.58;97887.03;5071339;28;20166;-61
2021/09/26 05:16:44;;;;;;;4.38;3.20;;;;;;;9.60;81.87;97885.72;5072830;28;20102;-60
2021/09/26 05:19:10;;;;;;;7.50;3.60;;;;;;;9.64;82.41;97882.25;5072422;28;20409;-60
2021/09/26 05:21:36;;;;;;;6.10;4.15;;;;;;;9.56;82.07;97890.75;5072728;28;20059;-60
2021/09/26 05:24:02;;;;;;;6.60;3.63;;;;;;;9.66;83.02;97888.06;5072524;28;20043;-60
2021/09/26 05:26:28;;;;;;;3.15;2.72;;;;;;;9.65;82.22;97888.34;5072536;28;20044;-60
2021/09/26 05:28:54;;;;;;;4.97;2.90;;;;;;;9.60;82.45;97893.66;5072234;28;20049;-60
2021/09/26 05:31:19;;;;;;;4.40;2.58;;;;;;;9.62;82.30;97892.31;5071942;28;20517;-60
2021/09/26 05:33:45;;;;;;;3.13;2.17;;;;;;;9.57;82.25;97894.97;5072026;28;20044;-60
2021/09/26 05:36:11;;;;;;;2.72;1.75;;;;;;;9.55;81.54;97907.66;5070682;28;20102;-60
2021/09/26 05:38:38;;;;;;;2.42;1.63;;;;;;;9.56;81.95;97903.97;5071856;28;20124;-60
2021/09/26 05:41:03;;;;;;;1.45;1.35;;;;;;;9.57;81.77;97896.81;5071919;28;20401;-61
2021/09/26 05:43:29;;;;;;;1.60;1.48;;;;;;;9.52;81.62;97905.56;5071751;28;20127;-60
2021/09/26 05:45:55;;;;;;;1.45;1.35;;;;;;;9.60;82.36;97917.47;5070819;28;20456;-60
2021/09/26 05:48:21;;;;;;;3.67;1.77;;;;;;;9.57;82.38;97913.50;5072118;28;20410;-61
2021/09/26 05:50:48;;;;;;;4.10;2.80;;;;;;;9.65;82.34;97912.16;5071621;28;20091;-60
2021/09/26 05:53:14;;;;;;;5.65;4.00;;;;;;;9.76;81.38;97921.66;5071687;28;20502;-60
2021/09/26 05:55:39;;;;;;;2.08;1.83;;;;;;;9.82;81.19;97930.38;5071707;28;20056;-60
2021/09/26 05:58:05;;;;;;;1.20;1.10;;;;;;;9.70;81.00;97928.00;5071702;28;20040;-59
2021/09/26 06:00:31;;;;;;;1.67;1.58;;;;;;;9.81;81.12;97936.75;5070321;28;20413;-62
2021/09/26 06:02:56;;;;;;;1.30;1.20;;;;;;;9.86;80.59;97940.16;5072041;28;20101;-61
2021/09/26 06:05:23;;;;;;;1.35;1.23;;;;;;;9.94;80.34;97931.69;5071561;28;20557;-62
2021/09/26 06:07:49;;;;;;;1.95;1.60;;;;;;;10.04;80.62;97938.81;5071582;28;20064;-61
2021/09/26 06:10:15;;;;;;;2.00;1.75;;;;;;;10.13;80.16;97942.47;5071858;28;20142;-63
2021/09/26 06:12:44;;;;;;;1.33;1.23;;;;;;;10.18;79.64;97946.97;5071924;28;20047;-61
2021/09/26 06:15:11;;;;;;;1.58;1.10;;;;;;;10.16;79.44;97946.44;5070329;28;20481;-62
2021/09/26 06:17:37;;;;;;;2.55;1.77;;;;;;;10.24;78.97;97953.84;5065108;28;20044;-61
2021/09/26 06:20:03;;;;;;;2.65;2.20;;;;;;;10.31;79.76;97945.63;5071215;28;20044;-61
2021/09/26 06:22:29;;;;;;;8.27;2.60;;;;;;;10.56;79.38;97956.13;5071469;28;20486;-61
2021/09/26 06:24:56;;;;;;;1.90;1.73;;;;;;;10.78;77.12;97962.91;5053224;28;20421;-62
2021/09/26 06:27:24;;;;;;;1.95;1.42;;;;;;;10.90;78.52;97956.22;5071566;28;20082;-62
2021/09/26 06:29:50;;;;;;;2.45;1.85;;;;;;;10.98;76.45;97967.31;5071282;28;20048;-61
2021/09/26 06:32:15;;;;;;;2.38;1.30;;;;;;;10.89;76.01;97970.53;5070729;28;20560;-61
2021/09/26 06:34:41;;;;;;;3.15;1.80;;;;;;;10.85;76.74;97966.88;5071305;28;20486;-61
2021/09/26 06:37:07;;;;;;;2.00;1.17;;;;;;;10.73;77.06;97968.25;5070109;28;20055;-62
2021/09/26 06:39:34;;;;;;;1.77;1.67;;;;;;;10.67;76.73;97964.81;5071020;28;20043;-66
2021/09/26 06:42:00;;;;;;;1.30;1.20;;;;;;;10.62;78.00;97970.94;5069904;28;20049;-62
2021/09/26 06:44:26;;;;;;;1.73;1.35;;;;;;;10.63;77.11;97977.81;5071175;28;20503;-61
2021/09/26 06:46:53;;;;;;;1.00;1.00;;;;;;;10.55;77.08;97973.09;5071255;28;20459;-63
2021/09/26 06:49:18;;;;;;;1.92;1.50;;;;;;;10.48;77.73;97977.09;5072523;28;20074;-60
2021/09/26 06:51:45;;;;;;;2.35;1.83;;;;;;;10.37;77.12;97986.94;5074079;28;20040;-61
2021/09/26 06:54:11;;;;;;;1.60;1.50;;;;;;;10.41;77.48;97980.84;5075343;28;20063;-61
2021/09/26 06:56:37;;;;;;;1.50;1.25;;;;;;;10.45;77.48;97979.22;5075390;28;20048;-61
2021/09/26 06:59:02;;;;;;;2.60;1.70;;;;;;;10.57;77.33;97994.81;5074154;28;20520;-60
2021/09/26 07:01:32;;;;;;;2.55;1.80;;;;;;;10.57;76.96;97988.72;5075239;28;20037;-61
2021/09/26 07:03:59;;;;;;;1.65;1.50;;;;;;;10.58;76.06;97995.59;5075050;28;20059;-61
2021/09/26 07:06:25;;;;;;;2.55;1.75;;;;;;;10.48;76.90;97995.66;5075132;28;20048;-62
2021/09/26 07:08:51;;;;;;;3.30;2.15;;;;;;;10.48;77.33;97998.28;5074734;28;20556;-62
2021/09/26 07:11:24;;;;;;;4.57;2.83;;;;;;;10.42;76.37;97998.31;5075158;28;20052;-59
2021/09/26 07:13:54;;;;;;;4.82;2.42;;;;;;;10.41;76.97;98004.69;5025454;28;20502;-61
2021/09/26 07:16:22;;;;;;;3.70;2.08;;;;;;;10.38;77.49;98018.47;5074961;28;20048;-61
2021/09/26 07:18:50;;;;;;;2.40;1.80;;;;;;;10.32;76.98;98016.88;5074948;28;20425;-60
2021/09/26 07:21:16;;;;;;;1.80;1.70;;;;;;;10.32;77.96;98018.72;5075030;28;20045;-59
2021/09/26 07:23:45;;;;;;;3.05;1.90;;;;;;;10.34;78.19;98016.59;5073710;28;20170;-59
2021/09/26 07:26:11;;;;;;;3.72;2.20;;;;;;;10.35;76.98;98016.34;5073612;28;20052;-59
2021/09/26 07:28:38;;;;;;;3.05;2.38;;;;;;;10.29;78.10;98020.03;5074570;28;20048;-60
2021/09/26 07:31:04;;;;;;;1.40;1.30;;;;;;;10.29;78.02;98027.22;5073369;28;20052;-61
2021/09/26 07:33:30;;;;;;;1.83;1.52;;;;;;;10.30;77.76;98034.09;5074472;28;20078;-61
2021/09/26 07:35:56;;;;;;;2.58;1.50;;;;;;;10.31;78.44;98039.13;5074530;28;20043;-62
2021/09/26 07:38:22;;;;;;;2.10;1.35;;;;;;;10.35;77.64;98039.38;5074622;28;20174;-62
2021/09/26 07:40:47;;;;;;;1.50;1.40;;;;;;;10.48;77.39;98056.59;5073170;28;20414;-61
2021/09/26 07:43:13;;;;;;;1.50;1.38;;;;;;;10.43;78.36;98052.06;5074580;28;20043;-63
2021/09/26 07:45:39;;;;;;;1.80;1.42;;;;;;;10.33;77.82;98065.34;5073007;28;20067;-64
2021/09/26 07:48:05;;;;;;;1.30;1.20;;;;;;;10.24;77.33;98065.06;5074176;28;20185;-61
2021/09/26 07:50:32;;;;;;;1.20;1.10;;;;;;;10.18;77.98;98064.28;5074660;28;20090;-62
2021/09/26 07:52:58;;;;;;;1.30;1.20;;;;;;;10.19;78.35;98060.56;5073697;28;20442;-58
2021/09/26 07:55:24;;;;;;;1.40;1.30;;;;;;;10.16;79.31;98063.75;5068083;28;20036;-61
2021/09/26 07:57:50;;;;;;;2.55;1.35;;;;;;;10.17;78.25;98065.31;5072631;28;20067;-60
2021/09/26 08:00:16;;;;;;;1.40;1.30;;;;;;;10.24;78.34;98065.06;5072743;28;20517;-60
2021/09/26 08:02:42;;;;;;;1.40;1.30;;;;;;;10.26;78.33;98065.59;5074025;28;20094;-59
2021/09/26 08:05:09;;;;;;;1.80;1.40;;;;;;;10.44;77.91;98069.53;5072367;28;20502;-60
2021/09/26 08:07:35;;;;;;;1.40;1.30;;;;;;;10.53;76.64;98078.56;5073716;28;20053;-61
2021/09/26 08:10:01;;;;;;;1.63;1.50;;;;;;;10.59;76.20;98082.78;5072970;28;20036;-62
2021/09/26 08:12:27;;;;;;;1.65;1.50;;;;;;;10.70;76.26;98078.22;5055829;28;20051;-62
2021/09/26 08:14:52;;;;;;;1.75;1.40;;;;;;;10.90;75.15;98085.31;5073464;28;20051;-62
2021/09/26 08:17:18;;;;;;;2.20;1.40;;;;;;;10.93;74.51;98082.13;5073817;28;20521;-61
2021/09/26 08:19:44;;;;;;;1.33;1.23;;;;;;;11.10;73.68;98090.53;5073723;28;20082;-62
2021/09/26 08:22:10;;;;;;;1.35;1.23;;;;;;;11.13;73.12;98084.69;5071964;28;20135;-60
2021/09/26 08:24:36;;;;;;;1.50;1.40;;;;;;;11.29;74.14;98092.56;5072237;28;20441;-62
2021/09/26 08:27:04;;;;;;;2.95;1.38;;;;;;;11.51;73.70;98094.84;5073452;28;20051;-66
2021/09/26 08:29:30;;;;;;;1.20;1.10;;;;;;;11.50;72.03;98103.88;5073714;28;20485;-61
2021/09/26 08:31:57;;;;;;;1.33;1.10;;;;;;;11.49;70.69;98123.53;5073892;28;20453;-60
2021/09/26 08:34:23;;;;;;;1.20;1.10;;;;;;;11.35;71.21;98113.53;5072185;28;20477;-60
2021/09/26 08:36:50;;;;;;;1.02;1.02;;;;;;;11.34;70.71;98124.38;5073576;28;20478;-60
2021/09/26 08:39:16;;;;;;;1.30;1.20;;;;;;;11.49;71.81;98123.53;5071962;28;20047;-62
2021/09/26 08:41:44;;;;;;;1.25;1.10;;;;;;;11.57;72.34;98125.59;5073101;28;20433;-60
2021/09/26 08:44:11;;;;;;;1.13;0.90;;;;;;;11.64;70.92;98118.13;5006089;28;20497;-62
2021/09/26 08:46:37;;;;;;;1.00;0.90;;;;;;;11.74;70.05;98117.28;5073272;28;20075;-63
2021/09/26 08:49:03;;;;;;;2.70;0.90;;;;;;;11.78;70.73;98120.97;5071806;28;20075;-62
2021/09/26 08:51:29;;;;;;;0.70;0.70;;;;;;;11.75;68.39;98132.91;5072958;28;20044;-62
2021/09/26 08:53:55;;;;;;;0.80;0.80;;;;;;;11.91;68.95;98131.00;5073205;28;20036;-61
2021/09/26 08:56:21;;;;;;;1.00;0.70;;;;;;;11.95;68.10;98134.69;5073466;28;20405;-61
2021/09/26 08:58:48;;;;;;;0.77;0.77;;;;;;;11.99;69.36;98132.25;5072809;28;20045;-64
2021/09/26 09:01:14;;;;;;;1.25;1.10;;;;;;;11.97;68.88;98153.78;5073119;28;20559;-61
2021/09/26 09:03:45;;;;;;;0.93;0.82;;;;;;;11.89;69.04;98175.63;5072779;28;20048;-61
2021/09/26 09:06:11;;;;;;;0.80;0.80;;;;;;;11.96;68.90;98151.41;5073061;28;20036;-63
2021/09/26 09:08:40;;;;;;;0.98;0.80;;;;;;;11.96;68.55;98154.84;5072794;28;20060;-62
2021/09/26 09:11:07;;;;;;;1.40;0.95;;;;;;;11.95;69.17;98155.91;5072696;28;20128;-62
2021/09/26 09:13:42;;;;;;;0.82;0.80;;;;;;;12.00;68.06;98165.69;5071219;28;20055;-61
2021/09/26 09:16:09;;;;;;;0.77;0.77;;;;;;;12.00;68.21;98171.84;5072742;28;20491;-63
2021/09/26 09:18:50;;;;;;;0.80;0.80;;;;;;;12.04;67.37;98161.44;5072903;28;20452;-63
2021/09/26 09:21:34;;;;;;;0.60;0.60;;;;;;;12.08;66.21;98159.81;5072505;28;20537;-62
2021/09/26 09:24:30;;;;;;;0.70;0.70;;;;;;;12.21;66.26;98185.75;5072463;28;20131;-62
2021/09/26 09:26:56;;;;;;;0.80;0.80;;;;;;;12.13;66.99;98173.06;5072756;28;20044;-61
2021/09/26 09:29:23;;;;;;;0.80;0.80;;;;;;;12.22;67.90;98174.03;5072415;28;20082;-61
2021/09/26 09:31:52;;;;;;;1.83;1.65;;;;;;;12.40;68.65;98177.09;5071169;28;20041;-61
2021/09/26 09:34:34;;;;;;;1.00;0.90;;;;;;;12.27;70.21;98184.66;5072217;28;20040;-62
2021/09/26 09:37:14;;;;;;;2.65;1.83;;;;;;;12.18;71.29;98185.53;5072286;28;20056;-61
2021/09/26 09:39:41;;;;;;;1.50;1.20;;;;;;;11.98;70.26;98189.88;5072262;28;20094;-61
2021/09/26 09:42:18;;;;;;;2.45;1.80;;;;;;;11.91;71.74;98189.41;5072356;28;20154;-62
2021/09/26 09:44:44;;;;;;;2.13;1.58;;;;;;;11.78;71.89;98195.28;5072096;28;20086;-62
2021/09/26 09:47:10;;;;;;;2.80;1.73;;;;;;;11.60;71.28;98200.16;5072287;28;20445;-62
2021/09/26 09:49:37;;;;;;;4.47;1.60;;;;;;;11.64;71.45;98197.75;5071871;28;20072;-61
2021/09/26 09:52:04;;;;;;;1.88;1.30;;;;;;;11.65;70.83;98199.34;5054068;28;20094;-61
2021/09/26 09:54:38;;;;;;;1.20;1.10;;;;;;;11.45;72.27;98212.72;5071943;28;20480;-63
2021/09/26 09:57:19;;;;;;;0.80;0.80;;;;;;;11.16;73.20;98209.88;5071967;28;20086;-62
2021/09/26 09:59:46;;;;;;;;;;;;;;;11.09;74.01;98226.88;5072388;28;20048;-62
2021/09/26 10:02:13;;;;;;;1.15;0.80;;;;;;;11.16;74.19;98217.84;5070868;28;19967;-62
2021/09/26 10:04:44;;;;;;;0.90;0.90;;;;;;;11.36;73.89;98218.56;5070410;28;20106;-61
2021/09/26 10:07:24;;;;;;;1.05;0.80;;;;;;;11.49;72.12;98219.03;5071682;28;20117;-61
2021/09/26 10:09:51;;;;;;;0.70;0.70;;;;;;;11.57;73.00;98221.16;5070292;28;20044;-61
2021/09/26 10:12:23;;;;;;;2.47;1.05;;;;;;;11.63;71.46;98225.38;5071796;28;20078;-62
2021/09/26 10:14:52;;;;;;;0.98;0.90;;;;;;;11.68;70.26;98232.53;5071555;28;20128;-61
2021/09/26 10:17:19;;;;;;;0.70;0.70;;;;;;;11.71;69.95;98226.66;5070341;28;20123;-62
2021/09/26 10:19:45;;;;;;;0.80;0.80;;;;;;;11.99;69.84;98227.88;5070442;28;20046;-61
2021/09/26 10:22:15;;;;;;;0.95;0.93;;;;;;;12.19;68.91;98238.38;5071440;28;20044;-61
2021/09/26 10:24:47;;;;;;;1.42;0.98;;;;;;;12.31;68.78;98242.53;5071259;28;20086;-61
2021/09/26 10:27:18;;;;;;;1.00;1.00;;;;;;;12.42;67.54;98244.84;5071740;28;20090;-62
2021/09/26 10:29:44;;;;;;;1.17;0.90;;;;;;;12.27;67.02;98242.31;5071483;28;20044;-62
2021/09/26 10:32:10;;;;;;;1.00;0.90;;;;;;;12.30;67.18;98239.09;5069903;28;20048;-61
2021/09/26 10:34:37;;;;;;;1.23;1.08;;;;;;;12.24;67.34;98245.53;5071312;28;20127;-61
2021/09/26 10:37:07;;;;;;;1.10;1.00;;;;;;;12.28;67.15;98249.19;5070146;28;20052;-61
2021/09/26 10:39:33;;;;;;;0.90;0.90;;;;;;;12.16;68.24;98246.09;5070823;28;20409;-62
2021/09/26 10:42:11;;;;;;;1.17;1.08;;;;;;;12.29;68.35;98245.47;5071306;28;20056;-60
2021/09/26 10:44:46;;;;;;;3.50;1.30;;;;;;;12.21;68.78;98252.19;5071370;28;20393;-60
2021/09/26 10:47:16;;;;;;;1.23;1.13;;;;;;;12.05;70.14;98259.41;5069552;28;20071;-62
2021/09/26 10:50:05;;;;;;;1.00;1.00;;;;;;;11.91;70.92;98274.41;5071153;28;20045;-63
2021/09/26 10:52:35;;;;;;;1.55;0.90;;;;;;;11.96;70.21;98270.91;5041427;28;20091;-60
2021/09/26 10:55:23;;;;;;;1.00;0.93;;;;;;;11.84;68.22;98289.78;5062976;28;20221;-60
2021/09/26 10:58:09;;;;;;;3.17;1.00;;;;;;;11.79;69.99;98269.38;5062894;28;20041;-61
2021/09/26 11:00:38;;;;;;;1.95;1.00;;;;;;;11.64;69.50;98288.00;5060497;28;20041;-61
2021/09/26 11:03:19;;;;;;;1.10;0.98;;;;;;;11.55;70.41;98308.97;5058811;28;20036;-61
2021/09/26 11:05:49;;;;;;;0.95;0.95;;;;;;;11.34;70.88;98302.16;5058884;28;20072;-61
2021/09/26 11:08:24;;;;;;;1.10;1.00;;;;;;;11.44;71.44;98309.28;5064451;28;20542;-63
2021/09/26 11:11:04;;;;;;;1.00;1.00;;;;;;;11.50;71.05;98287.78;5069519;28;20146;-61
2021/09/26 11:13:32;;;;;;;1.58;1.05;;;;;;;11.50;70.06;98302.91;5069424;28;20076;-63
2021/09/26 11:16:03;;;;;;;1.50;1.00;;;;;;;11.59;69.79;98317.22;5070642;28;20049;-64
2021/09/26 11:18:47;;;;;;;;;;;;;;;11.65;69.92;98307.34;5071356;28;20124;-60
2021/09/26 11:21:39;;;;;;;0.70;0.70;;;;;;;11.63;69.06;98320.13;5070872;28;19955;-60
2021/09/26 11:24:09;;;;;;;0.98;0.80;;;;;;;11.35;70.94;98325.78;5070673;28;20041;-58
2021/09/26 11:26:54;;;;;;;;;;;;;;;11.36;72.19;98322.03;5069164;28;20099;-60
2021/09/26 11:29:20;;;;;;;1.13;1.00;;;;;;;11.30;70.97;98339.03;5052550;28;20383;-60
2021/09/26 11:31:47;;;;;;;1.67;0.90;;;;;;;11.35;71.55;98348.81;5071614;28;20101;-60
2021/09/26 11:34:47;;;;;;;0.88;0.88;;;;;;;11.25;71.95;98359.47;5070655;28;20087;-60
2021/09/26 11:37:13;;;;;;;1.10;0.98;;;;;;;11.26;71.55;98361.84;5072746;28;20045;-62
2021/09/26 11:39:41;;;;;;;1.15;1.00;;;;;;;11.14;72.87;98348.84;5074071;28;20051;-63
2021/09/26 11:42:30;;;;;;;1.17;1.10;;;;;;;11.06;73.75;98351.22;5069480;28;20105;-61